Time;durP1;ratioP1;P1;durP2;ratioP2;P2;SDS_P1;SDS_P2;PMS_P1;PMS_P2;Temp;Humidity;BMP_temperature;BMP_pressure;BME280_temperature;BME280_humidity;BME280_pressure;Samples;Min_cycle;Max_cycle;Signal;HPM_P1;HPM_P2
2023/11/02 00:01:00;;;;;;;;;;;10.80;99.90;;;;;;8354093;28;19931;-69
2023/11/02 00:05:03;;;;;;;;;;;10.80;99.90;;;;;;8353904;28;19960;-70
2023/11/02 00:09:10;;;;;;;;;;;10.80;99.90;;;;;;8351280;28;20288;-70
2023/11/02 00:13:17;;;;;;;;;;;10.80;99.90;;;;;;8351814;28;19986;-70
2023/11/02 00:17:38;;;;;;;;;;;10.80;99.90;;;;;;8354337;28;20454;-70
2023/11/02 00:21:39;;;;;;;;;;;10.80;99.90;;;;;;8352763;28;19932;-70
2023/11/02 00:25:53;;;;;;;;;;;10.90;99.90;;;;;;8353440;28;19925;-70
2023/11/02 00:29:55;;;;;;;;;;;10.90;99.90;;;;;;8348203;28;19925;-70
2023/11/02 00:33:57;;;;;;;;;;;10.90;99.90;;;;;;8319284;28;20430;-70
2023/11/02 00:37:58;;;;;;;;;;;10.90;99.90;;;;;;8354252;28;19936;-70
2023/11/02 00:42:00;;;;;;;;;;;10.90;99.90;;;;;;8352723;28;19955;-70
2023/11/02 00:46:02;;;;;;;;;;;10.90;99.90;;;;;;8352800;28;19928;-70
2023/11/02 00:50:07;;;;;;;;;;;11.00;99.90;;;;;;8353804;28;20063;-70
2023/11/02 00:54:29;;;;;;;;;;;11.00;99.90;;;;;;8352042;28;19935;-70
2023/11/02 01:08:37;;;;;;;;;;;11.10;99.90;;;;;;8345049;28;20434;-70
2023/11/02 01:12:39;;;;;;;;;;;11.10;99.90;;;;;;8345347;28;20513;-70
2023/11/02 01:16:41;;;;;;;;;;;11.10;99.90;;;;;;8364729;28;19924;-70
2023/11/02 01:20:59;;;;;;;;;;;11.20;99.90;;;;;;8352995;28;19964;-70
2023/11/02 01:25:03;;;;;;;;;;;11.20;99.90;;;;;;8356705;28;19951;-70
2023/11/02 01:29:05;;;;;;;;;;;11.20;99.90;;;;;;8343064;28;19933;-70
2023/11/02 01:33:27;;;;;;;;;;;11.20;99.90;;;;;;8359744;28;19981;-70
2023/11/02 01:37:29;;;;;;;;;;;11.30;99.90;;;;;;8358572;28;19924;-70
2023/11/02 01:41:35;;;;;;;;;;;11.30;99.90;;;;;;8356006;28;19991;-70
2023/11/02 01:45:40;;;;;;;;;;;11.30;99.90;;;;;;8356347;28;19925;-70
2023/11/02 01:49:46;;;;;;;;;;;11.30;99.90;;;;;;8360231;28;19932;-70
2023/11/02 01:53:51;;;;;;;;;;;11.30;99.90;;;;;;8357949;28;19932;-70
2023/11/02 01:57:59;;;;;;;;;;;11.40;99.90;;;;;;8358403;28;20319;-70
2023/11/02 02:02:03;;;;;;;;;;;11.40;99.90;;;;;;8340849;28;20702;-70
2023/11/02 02:06:10;;;;;;;;;;;11.40;99.90;;;;;;8359962;28;20030;-70
2023/11/02 02:10:15;;;;;;;;;;;11.40;99.90;;;;;;8353017;28;19928;-70
2023/11/02 02:14:29;;;;;;;;;;;11.40;99.90;;;;;;8355240;28;19925;-70
2023/11/02 02:18:41;;;;;;;;;;;11.40;99.90;;;;;;8349224;28;19931;-71
2023/11/02 02:22:45;;;;;;;;;;;11.40;99.90;;;;;;8358157;28;19950;-70
2023/11/02 02:27:19;;;;;;;;;;;11.40;99.90;;;;;;8355698;28;20353;-70
2023/11/02 02:31:21;;;;;;;;;;;11.40;99.90;;;;;;8330459;28;19970;-70
2023/11/02 02:35:41;;;;;;;;;;;11.40;99.90;;;;;;8354816;28;19925;-70
2023/11/02 02:39:45;;;;;;;;;;;11.40;99.90;;;;;;8355360;28;19928;-70
2023/11/02 02:43:50;;;;;;;;;;;11.40;99.90;;;;;;8351506;28;19925;-70
2023/11/02 02:47:53;;;;;;;;;;;11.40;99.90;;;;;;8341928;28;19935;-70
2023/11/02 02:51:56;;;;;;;;;;;11.40;99.90;;;;;;8334961;28;19929;-70
2023/11/02 03:01:35;;;;;;;;;;;11.40;99.90;;;;;;8352283;28;19943;-70
2023/11/02 03:05:37;;;;;;;;;;;11.50;99.90;;;;;;8355908;28;19931;-70
2023/11/02 03:09:40;;;;;;;;;;;11.50;99.90;;;;;;8351963;28;19952;-70
2023/11/02 03:13:43;;;;;;;;;;;11.50;99.90;;;;;;8355547;28;20276;-70
2023/11/02 03:17:45;;;;;;;;;;;11.50;99.90;;;;;;8353747;28;20331;-70
2023/11/02 03:21:47;;;;;;;;;;;11.50;99.90;;;;;;8357947;28;19929;-70
2023/11/02 03:25:57;;;;;;;;;;;11.60;99.90;;;;;;8356402;28;19929;-70
2023/11/02 03:30:08;;;;;;;;;;;11.60;99.90;;;;;;8356551;28;20289;-70
2023/11/02 03:34:10;;;;;;;;;;;11.60;99.90;;;;;;8355705;28;19928;-70
2023/11/02 03:38:26;;;;;;;;;;;11.60;99.90;;;;;;8354587;28;20401;-70
2023/11/02 03:42:39;;;;;;;;;;;11.60;99.90;;;;;;8354892;28;19932;-70
2023/11/02 03:46:47;;;;;;;;;;;11.60;99.90;;;;;;8350975;28;20296;-70
2023/11/02 03:50:55;;;;;;;;;;;11.60;99.90;;;;;;8356412;28;19965;-70
2023/11/02 03:55:03;;;;;;;;;;;11.60;99.90;;;;;;8354767;28;20271;-70
2023/11/02 03:59:04;;;;;;;;;;;11.60;99.90;;;;;;8355310;28;19940;-70
2023/11/02 04:03:08;;;;;;;;;;;11.70;99.90;;;;;;8356809;28;19971;-70
2023/11/02 04:07:36;;;;;;;;;;;11.70;99.90;;;;;;8353242;28;19925;-70
2023/11/02 04:11:51;;;;;;;;;;;11.70;99.90;;;;;;8333895;28;19947;-70
2023/11/02 04:15:53;;;;;;;;;;;11.80;99.90;;;;;;8348900;28;19929;-70
2023/11/02 04:19:55;;;;;;;;;;;11.80;99.90;;;;;;8353948;28;19932;-70
2023/11/02 04:23:56;;;;;;;;;;;11.80;99.90;;;;;;8342974;28;19932;-70
2023/11/02 04:27:58;;;;;;;;;;;11.80;99.90;;;;;;8353643;28;20356;-70
2023/11/02 04:32:02;;;;;;;;;;;11.80;99.90;;;;;;8356098;28;19924;-70
2023/11/02 04:36:04;;;;;;;;;;;11.80;99.90;;;;;;8316400;28;19929;-70
2023/11/02 04:40:07;;;;;;;;;;;11.80;99.90;;;;;;8323035;28;19929;-70
2023/11/02 04:44:09;;;;;;;;;;;11.80;99.90;;;;;;8321394;28;20047;-71
2023/11/02 04:48:11;;;;;;;;;;;11.80;99.90;;;;;;8320651;28;19925;-70
2023/11/02 04:52:13;;;;;;;;;;;11.90;99.90;;;;;;8321149;28;19975;-70
2023/11/02 04:56:17;;;;;;;;;;;11.90;99.90;;;;;;8319988;28;19932;-70
2023/11/02 05:00:18;;;;;;;;;;;11.90;99.90;;;;;;8326175;28;20292;-70
2023/11/02 05:04:20;;;;;;;;;;;11.80;99.90;;;;;;8324782;28;20308;-70
2023/11/02 05:08:25;;;;;;;;;;;11.90;99.90;;;;;;8324787;28;19925;-70
2023/11/02 05:12:27;;;;;;;;;;;11.90;99.90;;;;;;8325587;28;19925;-70
2023/11/02 05:16:29;;;;;;;;;;;11.90;99.90;;;;;;8325717;28;19925;-70
2023/11/02 05:20:31;;;;;;;;;;;12.00;99.90;;;;;;8327065;28;20127;-70
2023/11/02 05:24:33;;;;;;;;;;;11.90;99.90;;;;;;8324896;28;19933;-70
2023/11/02 05:28:34;;;;;;;;;;;11.80;99.90;;;;;;8324511;28;19933;-70
2023/11/02 05:32:38;;;;;;;;;;;11.80;99.90;;;;;;8321598;28;19937;-70
2023/11/02 05:36:40;;;;;;;;;;;11.90;99.90;;;;;;8357933;28;19935;-70
2023/11/02 05:40:47;;;;;;;;;;;11.90;99.90;;;;;;8354369;28;20411;-70
2023/11/02 05:44:48;;;;;;;;;;;11.90;99.90;;;;;;8357494;28;20027;-70
2023/11/02 05:48:50;;;;;;;;;;;11.80;99.90;;;;;;8345843;28;19931;-70
2023/11/02 05:52:52;;;;;;;;;;;11.80;99.90;;;;;;8355321;28;19929;-70
2023/11/02 05:56:53;;;;;;;;;;;11.70;99.90;;;;;;8357169;28;19983;-70
2023/11/02 06:00:55;;;;;;;;;;;11.60;99.90;;;;;;8337994;28;19925;-70
2023/11/02 06:04:57;;;;;;;;;;;11.50;99.90;;;;;;8355661;28;19925;-70
2023/11/02 06:08:58;;;;;;;;;;;11.50;99.90;;;;;;8352991;28;19932;-70
2023/11/02 06:13:00;;;;;;;;;;;11.50;99.90;;;;;;8356094;28;19971;-70
2023/11/02 06:17:02;;;;;;;;;;;11.50;99.90;;;;;;8351811;28;19924;-70
2023/11/02 06:21:04;;;;;;;;;;;11.50;99.90;;;;;;8353207;28;19932;-70
2023/11/02 06:25:06;;;;;;;;;;;11.40;99.90;;;;;;8356676;28;19971;-70
2023/11/02 06:29:09;;;;;;;;;;;11.40;99.90;;;;;;8355612;28;19978;-70
2023/11/02 06:33:17;;;;;;;;;;;11.30;99.90;;;;;;8365213;28;19925;-70
2023/11/02 06:37:20;;;;;;;;;;;11.20;99.90;;;;;;8347179;28;19932;-70
2023/11/02 06:41:22;;;;;;;;;;;11.20;99.90;;;;;;8358064;28;20407;-70
2023/11/02 06:45:24;;;;;;;;;;;11.20;99.90;;;;;;8355045;28;19932;-70
2023/11/02 06:49:26;;;;;;;;;;;11.20;99.90;;;;;;8359628;28;19925;-70
2023/11/02 06:53:27;;;;;;;;;;;11.20;99.90;;;;;;8351489;28;19990;-70
2023/11/02 06:57:29;;;;;;;;;;;11.20;99.90;;;;;;8353509;28;19928;-70
2023/11/02 07:01:32;;;;;;;;;;;11.20;99.90;;;;;;8345563;28;19925;-70
2023/11/02 07:05:34;;;;;;;;;;;11.20;99.90;;;;;;8351563;28;19936;-70
2023/11/02 07:09:35;;;;;;;;;;;11.30;99.90;;;;;;8345969;28;21604;-70
2023/11/02 07:13:37;;;;;;;;;;;11.30;99.90;;;;;;8353250;28;20292;-70
2023/11/02 07:17:39;;;;;;;;;;;11.40;99.90;;;;;;8349645;28;19925;-70
2023/11/02 07:21:40;;;;;;;;;;;11.50;99.90;;;;;;8348895;28;19969;-70
2023/11/02 07:25:42;;;;;;;;;;;11.50;99.90;;;;;;8348700;28;20031;-70
2023/11/02 07:29:44;;;;;;;;;;;11.60;99.90;;;;;;8352673;28;19928;-70
2023/11/02 07:33:46;;;;;;;;;;;11.70;99.90;;;;;;8354785;28;20336;-70
2023/11/02 07:37:47;;;;;;;;;;;11.70;99.90;;;;;;8352873;28;19951;-70
2023/11/02 07:41:49;;;;;;;;;;;11.80;99.90;;;;;;8353812;28;20399;-70
2023/11/02 07:45:50;;;;;;;;;;;11.90;99.90;;;;;;8355189;28;19935;-70
2023/11/02 07:49:52;;;;;;;;;;;11.90;99.90;;;;;;8353598;28;20350;-70
2023/11/02 07:53:54;;;;;;;;;;;11.90;99.90;;;;;;8356354;28;20395;-70
2023/11/02 07:57:56;;;;;;;;;;;11.90;99.90;;;;;;8356496;28;19925;-70
2023/11/02 08:01:58;;;;;;;;;;;11.90;99.90;;;;;;8358825;28;19947;-70
2023/11/02 08:06:00;;;;;;;;;;;11.90;99.90;;;;;;8336072;28;19924;-70
2023/11/02 08:10:01;;;;;;;;;;;12.00;99.90;;;;;;8348053;28;19925;-70
2023/11/02 08:14:04;;;;;;;;;;;12.00;99.90;;;;;;8350260;28;19933;-70
2023/11/02 08:18:06;;;;;;;;;;;12.10;99.90;;;;;;8357948;28;19936;-70
2023/11/02 08:22:08;;;;;;;;;;;12.20;99.90;;;;;;8352428;28;20300;-70
2023/11/02 08:26:10;;;;;;;;;;;12.20;99.90;;;;;;8351131;28;20410;-70
2023/11/02 08:30:12;;;;;;;;;;;12.30;99.90;;;;;;8354016;28;20335;-70
2023/11/02 08:34:15;;;;;;;;;;;12.30;99.90;;;;;;8366325;28;19931;-70
2023/11/02 08:38:17;;;;;;;;;;;12.50;99.90;;;;;;8365115;28;19924;-70
2023/11/02 08:42:18;;;;;;;;;;;12.80;99.90;;;;;;8360997;28;19925;-70
2023/11/02 08:46:22;;;;;;;;;;;13.10;99.90;;;;;;8365906;28;19928;-70
2023/11/02 08:50:25;;;;;;;;;;;13.20;99.90;;;;;;8362585;28;20380;-70
2023/11/02 08:54:26;;;;;;;;;;;13.20;99.90;;;;;;8365227;28;20491;-70
2023/11/02 08:58:29;;;;;;;;;;;13.30;99.90;;;;;;8375471;28;19926;-70
2023/11/02 09:02:31;;;;;;;;;;;13.40;99.90;;;;;;8368604;28;19925;-70
2023/11/02 09:06:33;;;;;;;;;;;13.50;99.90;;;;;;8348480;28;19968;-70
2023/11/02 09:10:34;;;;;;;;;;;13.60;99.90;;;;;;8360376;28;19956;-70
2023/11/02 09:14:36;;;;;;;;;;;13.60;99.90;;;;;;8366470;28;19925;-70
2023/11/02 09:18:38;;;;;;;;;;;13.70;99.90;;;;;;8369114;28;19978;-70
2023/11/02 09:22:42;;;;;;;;;;;13.80;99.90;;;;;;8362589;28;19980;-70
2023/11/02 09:26:43;;;;;;;;;;;14.00;99.90;;;;;;8343805;28;19925;-70
2023/11/02 09:30:45;;;;;;;;;;;14.20;99.90;;;;;;8366021;28;19925;-70
2023/11/02 09:34:47;;;;;;;;;;;14.20;99.90;;;;;;8368289;28;19947;-70
2023/11/02 09:38:49;;;;;;;;;;;14.40;99.90;;;;;;8366838;28;19944;-70
2023/11/02 09:42:51;;;;;;;;;;;14.40;99.90;;;;;;8366741;28;19929;-70
2023/11/02 09:46:53;;;;;;;;;;;14.40;99.90;;;;;;8362173;28;19970;-70
2023/11/02 09:50:57;;;;;;;;;;;14.30;99.90;;;;;;8359408;28;19931;-70
2023/11/02 09:55:00;;;;;;;;;;;14.30;99.90;;;;;;8361043;28;19928;-70
2023/11/02 09:59:03;;;;;;;;;;;14.20;99.90;;;;;;8360335;28;20411;-70
2023/11/02 10:03:04;;;;;;;;;;;14.20;99.90;;;;;;8357212;28;19925;-70
2023/11/02 10:07:06;;;;;;;;;;;14.10;99.90;;;;;;8352220;28;19935;-70
2023/11/02 10:11:12;;;;;;;;;;;14.10;99.90;;;;;;8354112;28;19925;-70
2023/11/02 10:15:16;;;;;;;;;;;13.90;99.90;;;;;;8356995;28;20268;-70
2023/11/02 10:19:18;;;;;;;;;;;13.80;99.90;;;;;;8359532;28;20946;-70
2023/11/02 10:23:20;;;;;;;;;;;13.80;99.90;;;;;;8322822;28;19974;-69
2023/11/02 10:27:22;;;;;;;;;;;13.50;99.90;;;;;;8311366;28;20229;-70
2023/11/02 10:31:24;;;;;;;;;;;13.40;99.90;;;;;;8323810;28;19929;-70
2023/11/02 10:35:25;;;;;;;;;;;13.50;99.90;;;;;;8322411;28;19926;-70
2023/11/02 10:39:27;;;;;;;;;;;13.70;99.90;;;;;;8320807;28;20031;-70
2023/11/02 10:43:30;;;;;;;;;;;14.40;99.90;;;;;;8321391;28;19979;-70
2023/11/02 10:47:37;;;;;;;;;;;15.40;99.90;;;;;;8324644;28;19932;-70
2023/11/02 10:51:42;;;;;;;;;;;15.50;99.90;;;;;;8322135;28;19939;-70
2023/11/02 10:55:46;;;;;;;;;;;15.00;99.90;;;;;;8322120;28;20193;-71
2023/11/02 10:59:48;;;;;;;;;;;14.50;99.90;;;;;;8321851;28;19983;-69
2023/11/02 11:03:51;;;;;;;;;;;14.30;99.90;;;;;;8319117;28;19995;-70
2023/11/02 11:08:01;;;;;;;;;;;14.20;99.90;;;;;;8322147;28;20380;-70
2023/11/02 11:12:04;;;;;;;;;;;14.20;99.90;;;;;;8322411;28;19931;-70
2023/11/02 11:16:07;;;;;;;;;;;14.20;99.90;;;;;;8323005;28;19932;-70
2023/11/02 11:20:12;;;;;;;;;;;14.30;99.90;;;;;;8321148;28;20289;-70
2023/11/02 11:24:17;;;;;;;;;;;14.40;99.90;;;;;;8323545;28;19931;-70
2023/11/02 11:28:29;;;;;;;;;;;14.50;99.90;;;;;;8328335;28;19925;-70
2023/11/02 11:32:35;;;;;;;;;;;14.50;99.90;;;;;;8323576;28;19952;-70
2023/11/02 11:36:37;;;;;;;;;;;14.40;99.90;;;;;;8326108;28;19948;-70
2023/11/02 11:40:44;;;;;;;;;;;14.30;99.90;;;;;;8322417;28;20399;-69
2023/11/02 11:45:05;;;;;;;;;;;14.20;99.90;;;;;;8322836;28;19925;-70
2023/11/02 11:49:27;;;;;;;;;;;13.90;99.90;;;;;;8322490;28;20304;-69
2023/11/02 11:53:29;;;;;;;;;;;13.10;99.90;;;;;;8319938;28;19975;-70
2023/11/02 11:57:49;;;;;;;;;;;11.90;99.90;;;;;;8321988;28;19925;-70
2023/11/02 12:02:09;;;;;;;;;;;11.40;99.90;;;;;;8320299;28;19933;-70
2023/11/02 12:06:14;;;;;;;;;;;11.30;99.90;;;;;;8320261;28;20342;-70
2023/11/02 12:10:22;;;;;;;;;;;11.40;99.90;;;;;;8324546;28;20512;-71
2023/11/02 12:14:25;;;;;;;;;;;11.70;99.90;;;;;;8323833;28;19932;-70
2023/11/02 12:18:28;;;;;;;;;;;11.80;99.90;;;;;;8322287;28;19929;-70
2023/11/02 12:22:47;;;;;;;;;;;11.90;99.90;;;;;;8319033;28;19964;-70
2023/11/02 12:26:49;;;;;;;;;;;11.90;99.90;;;;;;8326038;28;20277;-70
2023/11/02 12:30:50;;;;;;;;;;;11.80;99.90;;;;;;8327482;28;19933;-70
2023/11/02 12:34:55;;;;;;;;;;;11.70;99.90;;;;;;8323839;28;19975;-70
2023/11/02 12:38:56;;;;;;;;;;;11.70;99.90;;;;;;8320198;28;19971;-70
2023/11/02 12:42:58;;;;;;;;;;;11.80;99.90;;;;;;8323246;28;19968;-70
2023/11/02 12:47:06;;;;;;;;;;;12.00;99.90;;;;;;8321679;28;19933;-70
2023/11/02 12:51:15;;;;;;;;;;;12.10;99.90;;;;;;8322137;28;19928;-70
2023/11/02 12:55:19;;;;;;;;;;;12.10;99.90;;;;;;8323093;28;20426;-70
2023/11/02 12:59:25;;;;;;;;;;;12.10;99.90;;;;;;8321403;28;20351;-69
2023/11/02 13:03:27;;;;;;;;;;;12.10;99.90;;;;;;8323727;28;19925;-70
2023/11/02 13:07:30;;;;;;;;;;;12.10;99.90;;;;;;8321821;28;19935;-69
2023/11/02 13:11:34;;;;;;;;;;;12.10;99.90;;;;;;8321609;28;20112;-70
2023/11/02 13:15:35;;;;;;;;;;;12.10;99.90;;;;;;8324946;28;20677;-70
2023/11/02 13:19:38;;;;;;;;;;;12.30;99.90;;;;;;8326218;28;20083;-70
2023/11/02 13:23:42;;;;;;;;;;;12.30;99.90;;;;;;8323879;28;19964;-70
2023/11/02 13:27:44;;;;;;;;;;;12.40;99.90;;;;;;8341529;28;20683;-70
2023/11/02 13:31:46;;;;;;;;;;;12.40;99.90;;;;;;8331375;28;19983;-70
2023/11/02 13:35:48;;;;;;;;;;;12.40;99.90;;;;;;8329804;28;19925;-70
2023/11/02 13:39:49;;;;;;;;;;;12.50;99.90;;;;;;8324557;28;19932;-70
2023/11/02 13:43:52;;;;;;;;;;;12.40;99.90;;;;;;8330221;28;19924;-69
2023/11/02 13:47:54;;;;;;;;;;;12.50;99.90;;;;;;8329885;28;19929;-70
2023/11/02 13:51:55;;;;;;;;;;;12.50;99.90;;;;;;8328537;28;19925;-70
2023/11/02 13:55:57;;;;;;;;;;;12.50;99.90;;;;;;8311556;28;19925;-70
2023/11/02 14:00:01;;;;;;;;;;;12.40;99.90;;;;;;8332070;28;20935;-70
2023/11/02 14:04:03;;;;;;;;;;;12.40;99.90;;;;;;8325818;28;19932;-70
2023/11/02 14:08:05;;;;;;;;;;;12.30;99.90;;;;;;8324240;28;20007;-70
2023/11/02 14:12:07;;;;;;;;;;;12.10;99.90;;;;;;8329175;28;19983;-70
2023/11/02 14:16:08;;;;;;;;;;;12.10;99.90;;;;;;8326434;28;20335;-70
2023/11/02 14:20:10;;;;;;;;;;;12.00;99.90;;;;;;8327460;28;19925;-70
2023/11/02 14:24:13;;;;;;;;;;;11.90;99.90;;;;;;8327663;28;19932;-70
2023/11/02 14:28:14;;;;;;;;;;;11.80;99.90;;;;;;8333504;28;19929;-70
2023/11/02 14:32:16;;;;;;;;;;;11.70;99.90;;;;;;8328701;28;19960;-70
2023/11/02 14:36:23;;;;;;;;;;;11.70;99.90;;;;;;8324228;28;19979;-70
2023/11/02 14:40:28;;;;;;;;;;;11.60;99.90;;;;;;8323551;28;21572;-70
2023/11/02 14:44:29;;;;;;;;;;;11.60;99.90;;;;;;8324510;28;19998;-69
2023/11/02 14:48:31;;;;;;;;;;;11.60;99.90;;;;;;8329336;28;19987;-69
2023/11/02 14:52:34;;;;;;;;;;;11.50;99.90;;;;;;8328051;28;20292;-69
2023/11/02 14:56:39;;;;;;;;;;;11.40;99.90;;;;;;8321360;28;19951;-70
2023/11/02 15:00:42;;;;;;;;;;;11.40;99.90;;;;;;8325509;28;19972;-70
2023/11/02 15:04:44;;;;;;;;;;;11.40;99.90;;;;;;8317709;28;19972;-69
2023/11/02 15:08:46;;;;;;;;;;;11.30;99.90;;;;;;8323730;28;19925;-69
2023/11/02 15:12:53;;;;;;;;;;;11.30;99.90;;;;;;8321482;28;19929;-70
2023/11/02 15:16:54;;;;;;;;;;;11.30;99.90;;;;;;8324914;28;19932;-70
2023/11/02 15:20:56;;;;;;;;;;;11.20;99.90;;;;;;8323502;28;19932;-69
2023/11/02 15:24:59;;;;;;;;;;;11.10;99.90;;;;;;8326800;28;19980;-69
2023/11/02 15:29:00;;;;;;;;;;;10.90;99.90;;;;;;8323214;28;19932;-69
2023/11/02 15:33:03;;;;;;;;;;;10.80;99.90;;;;;;8323416;28;19936;-69
2023/11/02 15:37:04;;;;;;;;;;;10.70;99.90;;;;;;8323217;28;20031;-70
2023/11/02 15:41:06;;;;;;;;;;;10.80;99.90;;;;;;8322999;28;19983;-69
2023/11/02 15:45:09;;;;;;;;;;;10.70;99.90;;;;;;8321776;28;19975;-69
2023/11/02 15:49:11;;;;;;;;;;;10.60;99.90;;;;;;8327644;28;19932;-69
2023/11/02 15:53:16;;;;;;;;;;;10.60;99.90;;;;;;8321867;28;19990;-69
2023/11/02 15:57:18;;;;;;;;;;;10.40;99.90;;;;;;8324351;28;19933;-69
2023/11/02 16:01:29;;;;;;;;;;;10.20;99.90;;;;;;8324741;28;19947;-70
2023/11/02 16:05:31;;;;;;;;;;;10.20;99.90;;;;;;8299264;28;19933;-70
2023/11/02 16:09:33;;;;;;;;;;;10.20;99.90;;;;;;8323896;28;19925;-69
2023/11/02 16:13:34;;;;;;;;;;;10.20;99.90;;;;;;8323185;28;19931;-69
2023/11/02 16:17:36;;;;;;;;;;;10.20;99.90;;;;;;8331908;28;19933;-69
2023/11/02 16:21:38;;;;;;;;;;;10.10;99.90;;;;;;8312185;28;20418;-70
2023/11/02 16:25:40;;;;;;;;;;;10.10;99.90;;;;;;8327045;28;20292;-70
2023/11/02 16:29:42;;;;;;;;;;;10.00;99.90;;;;;;8326410;28;19940;-69
2023/11/02 16:33:44;;;;;;;;;;;10.00;99.90;;;;;;8323315;28;19925;-69
2023/11/02 16:37:50;;;;;;;;;;;10.00;99.90;;;;;;8307101;28;20043;-70
2023/11/02 16:41:52;;;;;;;;;;;10.10;99.90;;;;;;8320288;28;19925;-70
2023/11/02 16:45:54;;;;;;;;;;;10.10;99.90;;;;;;8319671;28;20431;-69
2023/11/02 16:49:55;;;;;;;;;;;10.20;99.90;;;;;;8322311;28;19980;-69
2023/11/02 16:53:59;;;;;;;;;;;10.30;99.90;;;;;;8324610;28;20481;-69
2023/11/02 16:58:00;;;;;;;;;;;10.40;99.90;;;;;;8326997;28;20172;-70
2023/11/02 17:02:02;;;;;;;;;;;10.50;99.90;;;;;;8325157;28;19933;-70
2023/11/02 17:06:04;;;;;;;;;;;10.60;99.90;;;;;;8327230;28;20027;-69
2023/11/02 17:10:07;;;;;;;;;;;10.70;99.90;;;;;;8328491;28;19935;-70
2023/11/02 17:14:08;;;;;;;;;;;10.70;99.90;;;;;;8326291;28;19925;-69
2023/11/02 17:18:10;;;;;;;;;;;10.70;99.90;;;;;;8327539;28;20039;-69
2023/11/02 17:22:12;;;;;;;;;;;10.80;99.90;;;;;;8327756;28;19925;-70
2023/11/02 17:26:13;;;;;;;;;;;10.80;99.90;;;;;;8330107;28;19928;-69
2023/11/02 17:30:15;;;;;;;;;;;10.90;99.90;;;;;;8327254;28;20028;-70
2023/11/02 17:34:17;;;;;;;;;;;10.90;99.90;;;;;;8325031;28;19925;-69
2023/11/02 17:38:18;;;;;;;;;;;10.90;99.90;;;;;;8326797;28;19929;-69
2023/11/02 17:42:20;;;;;;;;;;;11.00;99.90;;;;;;8327694;28;19932;-69
2023/11/02 17:46:24;;;;;;;;;;;11.10;99.90;;;;;;8324955;28;19975;-69
2023/11/02 17:50:26;;;;;;;;;;;11.10;99.90;;;;;;8326249;28;19929;-69
2023/11/02 17:54:28;;;;;;;;;;;11.20;99.90;;;;;;8328198;28;20258;-69
2023/11/02 17:58:29;;;;;;;;;;;11.20;99.90;;;;;;8328900;28;19926;-69
2023/11/02 18:02:32;;;;;;;;;;;11.30;99.90;;;;;;8331812;28;19929;-69
2023/11/02 18:06:33;;;;;;;;;;;11.30;99.90;;;;;;8310855;28;19970;-70
2023/11/02 18:10:35;;;;;;;;;;;11.30;99.90;;;;;;8330501;28;19964;-70
2023/11/02 18:14:37;;;;;;;;;;;11.40;99.90;;;;;;8324245;28;20332;-69
2023/11/02 18:18:38;;;;;;;;;;;11.40;99.90;;;;;;8327454;28;19991;-69
2023/11/02 18:22:41;;;;;;;;;;;11.40;99.90;;;;;;8325632;28;19939;-69
2023/11/02 18:26:42;;;;;;;;;;;11.40;99.90;;;;;;8306468;28;19925;-69
2023/11/02 18:30:44;;;;;;;;;;;11.40;99.90;;;;;;8327073;28;20508;-69
2023/11/02 18:34:46;;;;;;;;;;;11.50;99.90;;;;;;8305399;28;19932;-69
2023/11/02 18:38:47;;;;;;;;;;;11.50;99.90;;;;;;8323294;28;19936;-69
2023/11/02 18:42:49;;;;;;;;;;;11.50;99.90;;;;;;8324000;28;19925;-69
2023/11/02 18:46:51;;;;;;;;;;;11.50;99.90;;;;;;8321940;28;20028;-69
2023/11/02 18:50:53;;;;;;;;;;;11.50;99.90;;;;;;8326903;28;19933;-69
2023/11/02 18:54:56;;;;;;;;;;;11.50;99.90;;;;;;8324478;28;19925;-69
2023/11/02 18:58:58;;;;;;;;;;;11.50;99.90;;;;;;8324486;28;20380;-69
2023/11/02 19:03:00;;;;;;;;;;;11.50;99.90;;;;;;8326749;28;19952;-69
2023/11/02 19:07:02;;;;;;;;;;;11.50;99.90;;;;;;8325485;28;19925;-69
2023/11/02 19:11:06;;;;;;;;;;;11.40;99.90;;;;;;8324577;28;19925;-69
2023/11/02 19:15:08;;;;;;;;;;;11.40;99.90;;;;;;8306794;28;20308;-69
2023/11/02 19:19:11;;;;;;;;;;;11.40;99.90;;;;;;8324817;28;19933;-69
2023/11/02 19:23:12;;;;;;;;;;;11.30;99.90;;;;;;8321997;28;19933;-69
2023/11/02 19:27:15;;;;;;;;;;;11.30;99.90;;;;;;8326135;28;19929;-69
2023/11/02 19:31:17;;;;;;;;;;;11.20;99.90;;;;;;8328113;28;19933;-69
2023/11/02 19:35:19;;;;;;;;;;;11.10;99.90;;;;;;8321915;28;19925;-69
2023/11/02 19:39:20;;;;;;;;;;;11.00;99.90;;;;;;8326223;28;19943;-69
2023/11/02 19:43:24;;;;;;;;;;;10.90;99.90;;;;;;8306270;28;19994;-69
2023/11/02 19:47:25;;;;;;;;;;;10.70;99.90;;;;;;8322268;28;19933;-69
2023/11/02 19:51:27;;;;;;;;;;;10.70;99.90;;;;;;8325986;28;20020;-69
2023/11/02 19:55:29;;;;;;;;;;;10.60;99.90;;;;;;8323163;28;19929;-69
2023/11/02 19:59:31;;;;;;;;;;;10.40;99.90;;;;;;8323527;28;19936;-69
2023/11/02 20:03:32;;;;;;;;;;;10.40;99.90;;;;;;8323533;28;19979;-69
2023/11/02 20:07:34;;;;;;;;;;;10.30;99.90;;;;;;8322612;28;19928;-69
2023/11/02 20:11:36;;;;;;;;;;;10.30;99.90;;;;;;8320807;28;19925;-69
2023/11/02 20:15:38;;;;;;;;;;;10.30;99.90;;;;;;8319864;28;20296;-69
2023/11/02 20:19:41;;;;;;;;;;;10.30;99.90;;;;;;8322684;28;19925;-69
2023/11/02 20:23:43;;;;;;;;;;;10.20;99.90;;;;;;8318927;28;19960;-69
2023/11/02 20:27:44;;;;;;;;;;;10.10;99.90;;;;;;8322053;28;19925;-69
2023/11/02 20:31:47;;;;;;;;;;;10.00;99.90;;;;;;8322914;28;19929;-69
2023/11/02 20:35:49;;;;;;;;;;;10.00;99.90;;;;;;8321220;28;19932;-69
2023/11/02 20:39:50;;;;;;;;;;;9.90;99.90;;;;;;8305040;28;20286;-69
2023/11/02 20:43:52;;;;;;;;;;;9.80;99.90;;;;;;8321813;28;19936;-69
2023/11/02 20:47:54;;;;;;;;;;;9.80;99.90;;;;;;8322412;28;19975;-69
2023/11/02 20:51:56;;;;;;;;;;;9.70;99.90;;;;;;8321177;28;20023;-69
2023/11/02 20:55:58;;;;;;;;;;;9.60;99.90;;;;;;8322541;28;19925;-69
2023/11/02 21:00:00;;;;;;;;;;;9.50;99.90;;;;;;8321032;28;19925;-69
2023/11/02 21:04:02;;;;;;;;;;;9.40;99.90;;;;;;8319326;28;19929;-69
2023/11/02 21:08:04;;;;;;;;;;;9.20;99.90;;;;;;8320216;28;19972;-69
2023/11/02 21:12:06;;;;;;;;;;;9.20;99.90;;;;;;8320578;28;24099;-69
2023/11/02 21:16:09;;;;;;;;;;;9.00;99.90;;;;;;8321536;28;20373;-69
2023/11/02 21:20:10;;;;;;;;;;;8.80;99.90;;;;;;8325767;28;20015;-69
2023/11/02 21:24:12;;;;;;;;;;;8.70;99.90;;;;;;8318136;28;20455;-69
2023/11/02 21:28:14;;;;;;;;;;;8.50;99.90;;;;;;8322864;28;19972;-69
2023/11/02 21:32:18;;;;;;;;;;;8.40;99.90;;;;;;8317591;28;19935;-69
2023/11/02 21:36:20;;;;;;;;;;;8.40;99.90;;;;;;8318536;28;20419;-69
2023/11/02 21:40:22;;;;;;;;;;;8.30;99.90;;;;;;8325237;28;19977;-69
2023/11/02 21:44:23;;;;;;;;;;;8.30;99.90;;;;;;8325203;28;20281;-70
2023/11/02 21:48:25;;;;;;;;;;;8.20;99.90;;;;;;8325616;28;20365;-69
2023/11/02 21:52:27;;;;;;;;;;;8.20;99.90;;;;;;8327228;28;19964;-69
2023/11/02 21:56:29;;;;;;;;;;;8.20;99.90;;;;;;8326750;28;19965;-70
2023/11/02 22:00:30;;;;;;;;;;;8.10;99.90;;;;;;8328378;28;19944;-70
2023/11/02 22:04:32;;;;;;;;;;;8.10;99.90;;;;;;8357005;28;19959;-70
2023/11/02 22:08:34;;;;;;;;;;;8.10;99.90;;;;;;8355559;28;19925;-70
2023/11/02 22:12:36;;;;;;;;;;;8.10;99.90;;;;;;8356992;28;20436;-70
2023/11/02 22:16:37;;;;;;;;;;;8.10;99.90;;;;;;8356154;28;19929;-70
2023/11/02 22:20:39;;;;;;;;;;;8.10;99.90;;;;;;8337844;28;20384;-70
2023/11/02 22:24:41;;;;;;;;;;;8.20;99.90;;;;;;8356913;28;20309;-69
2023/11/02 22:28:42;;;;;;;;;;;8.20;99.90;;;;;;8354153;28;19978;-70
2023/11/02 22:32:44;;;;;;;;;;;8.20;99.90;;;;;;8358329;28;19979;-69
2023/11/02 22:36:46;;;;;;;;;;;8.30;99.90;;;;;;8356658;28;19935;-69
2023/11/02 22:40:48;;;;;;;;;;;8.30;99.90;;;;;;8358812;28;19981;-69
2023/11/02 22:44:50;;;;;;;;;;;8.30;99.90;;;;;;8356731;28;20459;-70
2023/11/02 22:48:51;;;;;;;;;;;8.40;99.90;;;;;;8357707;28;19932;-69
2023/11/02 22:52:55;;;;;;;;;;;8.40;99.90;;;;;;8356421;28;20047;-69
2023/11/02 22:56:56;;;;;;;;;;;8.50;99.90;;;;;;8360304;28;20289;-68
2023/11/02 23:00:59;;;;;;;;;;;8.50;99.90;;;;;;8355699;28;19929;-69
2023/11/02 23:05:00;;;;;;;;;;;8.60;99.90;;;;;;8357181;28;19928;-69
2023/11/02 23:09:03;;;;;;;;;;;8.60;99.90;;;;;;8349833;28;19936;-69
2023/11/02 23:13:08;;;;;;;;;;;8.70;99.90;;;;;;8353405;28;20383;-69
2023/11/02 23:17:10;;;;;;;;;;;8.70;99.90;;;;;;8351957;28;19965;-69
2023/11/02 23:21:12;;;;;;;;;;;8.70;99.90;;;;;;8357607;28;19929;-69
2023/11/02 23:29:54;;;;;;;;;;;8.80;99.90;;;;;;8356335;28;19932;-69
2023/11/02 23:33:55;;;;;;;;;;;8.80;99.90;;;;;;8358103;28;20454;-69
2023/11/02 23:37:58;;;;;;;;;;;8.80;99.90;;;;;;8354292;28;19976;-69
2023/11/02 23:41:59;;;;;;;;;;;8.80;99.90;;;;;;8353587;28;19925;-69
2023/11/02 23:46:01;;;;;;;;;;;8.80;99.90;;;;;;8339456;28;19928;-69
2023/11/02 23:50:03;;;;;;;;;;;8.80;99.90;;;;;;8355503;28;19968;-69
2023/11/02 23:54:05;;;;;;;;;;;8.80;99.90;;;;;;8366401;28;19968;-69
2023/11/02 23:58:06;;;;;;;;;;;8.80;99.90;;;;;;8351523;28;19929;-69
